createdAt,value
2022-08-16T00:01:25.037Z,19.24
2022-08-16T00:03:55.750Z,19.29
2022-08-16T00:06:23.201Z,19.23
2022-08-16T00:08:50.213Z,18.88
2022-08-16T00:11:19.502Z,18.79
2022-08-16T00:13:53.745Z,18.91
2022-08-16T00:17:05.812Z,18.96
2022-08-16T00:19:22.513Z,19.07
2022-08-16T00:21:53.295Z,18.96
2022-08-16T00:24:32.135Z,18.71
2022-08-16T00:27:00.191Z,18.67
2022-08-16T00:29:29.688Z,18.73
2022-08-16T00:32:01.082Z,18.81
2022-08-16T00:34:43.391Z,18.73
2022-08-16T00:37:21.228Z,18.24
2022-08-16T00:39:58.322Z,18.33
2022-08-16T00:42:32.077Z,18.45
2022-08-16T00:45:27.670Z,18.54
2022-08-16T00:47:55.565Z,18.58
2022-08-16T00:50:36.608Z,18.31
2022-08-16T00:53:07.219Z,18.24
2022-08-16T00:55:36.893Z,18.29
2022-08-16T00:58:12.892Z,18.41
2022-08-16T01:00:44.591Z,18.48
2022-08-16T01:03:30.132Z,18.33
2022-08-16T01:05:57.619Z,17.96
2022-08-16T01:08:35.918Z,18.14
2022-08-16T01:11:05.428Z,18.26
2022-08-16T01:13:37.689Z,18.32
2022-08-16T01:16:11.417Z,18.28
2022-08-16T01:18:45.141Z,18.12
2022-08-16T01:21:24.799Z,17.95
2022-08-16T01:24:53.314Z,18.08
2022-08-16T01:27:15.981Z,18.17
2022-08-16T01:29:58.196Z,18.22
2022-08-16T01:32:33.812Z,18.21
2022-08-16T01:35:03.076Z,18.23
2022-08-16T01:37:40.261Z,17.95
2022-08-16T01:40:09.893Z,17.79
2022-08-16T01:42:36.999Z,17.95
2022-08-16T01:45:09.359Z,18.06
2022-08-16T01:47:49.526Z,18.10
2022-08-16T01:50:42.807Z,18.16
2022-08-16T01:53:06.945Z,18.19
2022-08-16T01:55:36.813Z,18.25
2022-08-16T01:58:12.204Z,17.92
2022-08-16T02:00:39.295Z,17.89
2022-08-16T02:03:06.179Z,17.97
2022-08-16T02:05:33.046Z,18.04
2022-08-16T02:08:02.208Z,18.11
2022-08-16T02:10:29.168Z,18.11
2022-08-16T02:13:00.639Z,18.18
2022-08-16T02:15:30.117Z,18.19
2022-08-16T02:18:01.209Z,18.17
2022-08-16T02:20:35.664Z,18.00
2022-08-16T02:23:07.375Z,17.71
2022-08-16T02:25:52.614Z,17.84
2022-08-16T02:28:23.519Z,17.96
2022-08-16T02:30:52.055Z,17.95
2022-08-16T02:33:20.197Z,17.94
2022-08-16T02:35:58.129Z,17.98
2022-08-16T02:38:26.888Z,18.02
2022-08-16T02:40:55.165Z,18.03
2022-08-16T02:43:27.548Z,17.64
2022-08-16T02:45:55.346Z,17.60
2022-08-16T02:48:28.423Z,17.78
2022-08-16T02:51:06.267Z,17.89
2022-08-16T02:53:44.703Z,17.96
2022-08-16T02:56:17.094Z,18.00
2022-08-16T02:58:50.804Z,18.03
2022-08-16T03:01:36.650Z,18.11
2022-08-16T03:04:40.685Z,18.16
2022-08-16T03:06:56.490Z,18.21
2022-08-16T03:09:24.812Z,18.21
2022-08-16T03:11:51.568Z,18.18
2022-08-16T03:14:21.320Z,18.14
2022-08-16T03:17:00.186Z,18.13
2022-08-16T03:19:47.502Z,17.93
2022-08-16T03:22:28.711Z,18.01
2022-08-16T03:25:00.789Z,18.14
2022-08-16T03:27:30.601Z,18.23
2022-08-16T03:30:00.025Z,18.28
2022-08-16T03:32:26.816Z,18.32
2022-08-16T03:34:54.050Z,18.39
2022-08-16T03:37:20.810Z,18.44
2022-08-16T03:39:47.560Z,18.45
2022-08-16T03:42:20.270Z,18.43
2022-08-16T03:44:50.154Z,18.40
2022-08-16T03:47:19.322Z,18.39
2022-08-16T03:49:51.895Z,18.38
2022-08-16T03:52:20.584Z,18.33
2022-08-16T03:54:53.189Z,18.17
2022-08-16T03:57:32.129Z,17.77
2022-08-16T04:00:20.812Z,17.79
2022-08-16T04:03:07.243Z,17.86
2022-08-16T04:05:40.308Z,17.90
2022-08-16T04:08:23.086Z,18.00
2022-08-16T04:10:52.921Z,18.09
2022-08-16T04:14:00.408Z,18.16
2022-08-16T04:16:08.029Z,18.17
2022-08-16T04:18:39.007Z,18.22
2022-08-16T04:21:06.111Z,18.28
2022-08-16T04:23:32.831Z,18.27
2022-08-16T04:26:02.023Z,18.29
2022-08-16T04:28:53.622Z,18.32
2022-08-16T04:31:15.972Z,18.28
2022-08-16T04:33:51.067Z,18.32
2022-08-16T04:36:20.054Z,18.04
2022-08-16T04:38:50.017Z,17.71
2022-08-16T04:41:17.623Z,17.84
2022-08-16T04:43:44.977Z,17.99
2022-08-16T04:46:29.968Z,18.11
2022-08-16T04:49:01.915Z,18.21
2022-08-16T04:51:28.601Z,18.26
2022-08-16T04:54:03.604Z,18.40
2022-08-16T04:56:30.941Z,18.49
2022-08-16T04:58:58.581Z,18.58
2022-08-16T05:01:58.191Z,18.62
2022-08-16T05:04:19.619Z,18.68
2022-08-16T05:06:47.029Z,18.71
2022-08-16T05:09:14.520Z,18.47
2022-08-16T05:11:43.659Z,18.54
2022-08-16T05:14:10.490Z,18.71
2022-08-16T05:16:37.639Z,18.88
2022-08-16T05:19:11.579Z,19.00
2022-08-16T05:21:42.596Z,19.15
2022-08-16T05:24:09.403Z,19.17
2022-08-16T05:26:43.364Z,19.26
2022-08-16T05:29:18.401Z,19.42
2022-08-16T05:31:48.238Z,19.60
2022-08-16T05:34:22.501Z,19.66
2022-08-16T05:36:51.100Z,19.73
2022-08-16T05:39:22.360Z,19.81
2022-08-16T05:41:51.682Z,19.81
2022-08-16T05:44:23.484Z,19.89
2022-08-16T05:47:00.296Z,19.94
2022-08-16T05:49:36.945Z,19.94
2022-08-16T05:52:11.546Z,19.84
2022-08-16T05:54:46.558Z,19.91
2022-08-16T05:57:15.293Z,20.07
2022-08-16T05:59:42.725Z,20.24
2022-08-16T06:02:09.966Z,20.40
2022-08-16T06:04:37.687Z,20.58
2022-08-16T06:07:08.897Z,20.72
2022-08-16T06:09:44.577Z,20.85
2022-08-16T06:12:27.040Z,20.87
2022-08-16T06:15:04.250Z,20.46
2022-08-16T06:17:42.273Z,20.46
2022-08-16T06:20:14.652Z,20.67
2022-08-16T06:22:44.633Z,20.82
2022-08-16T06:25:15.104Z,20.91
2022-08-16T06:27:42.149Z,21.06
2022-08-16T06:30:24.649Z,21.23
2022-08-16T06:32:55.876Z,21.35
2022-08-16T06:35:22.726Z,21.42
2022-08-16T06:37:51.393Z,21.49
2022-08-16T06:40:19.304Z,21.54
2022-08-16T06:42:47.544Z,21.31
2022-08-16T06:45:15.334Z,21.13
2022-08-16T06:47:53.907Z,21.34
2022-08-16T06:50:29.442Z,21.51
2022-08-16T06:53:00.992Z,21.59
2022-08-16T06:55:38.419Z,21.63
2022-08-16T06:58:08.556Z,21.71
2022-08-16T07:00:37.765Z,21.77
2022-08-16T07:03:26.881Z,21.62
2022-08-16T07:05:54.056Z,21.42
2022-08-16T07:08:21.125Z,21.57
2022-08-16T07:10:48.159Z,21.75
2022-08-16T07:13:22.881Z,21.84
2022-08-16T07:16:04.296Z,21.90
2022-08-16T07:18:32.363Z,21.96
2022-08-16T07:21:02.044Z,21.79
2022-08-16T07:23:37.350Z,21.79
2022-08-16T07:26:10.230Z,21.94
2022-08-16T07:28:37.685Z,22.02
2022-08-16T07:31:05.445Z,22.03
2022-08-16T07:33:52.629Z,21.81
2022-08-16T07:36:22.805Z,21.94
2022-08-16T07:38:50.262Z,22.08
2022-08-16T07:41:17.530Z,22.16
2022-08-16T07:43:46.309Z,21.95
2022-08-16T07:46:38.852Z,21.90
2022-08-16T07:49:04.505Z,21.99
2022-08-16T07:51:38.213Z,22.12
2022-08-16T07:54:10.071Z,21.95
2022-08-16T07:56:38.091Z,21.92
2022-08-16T07:59:07.583Z,22.13
2022-08-16T08:01:35.337Z,22.25
2022-08-16T08:04:04.061Z,22.11
2022-08-16T08:06:33.106Z,22.10
2022-08-16T08:09:00.704Z,22.30
2022-08-16T08:11:30.067Z,22.45
2022-08-16T08:14:02.931Z,22.36
2022-08-16T08:16:32.407Z,22.51
2022-08-16T08:19:02.269Z,22.65
2022-08-16T08:21:58.271Z,22.60
2022-08-16T08:24:22.405Z,22.66
2022-08-16T08:26:59.416Z,22.82
2022-08-16T08:29:37.098Z,22.89
2022-08-16T08:32:57.604Z,22.72
2022-08-16T08:34:56.360Z,22.88
2022-08-16T08:37:41.735Z,22.92
2022-08-16T08:40:18.882Z,23.09
2022-08-16T08:42:57.638Z,23.30
2022-08-16T08:45:48.933Z,23.27
2022-08-16T08:48:33.491Z,23.38
2022-08-16T08:51:04.465Z,23.52
2022-08-16T08:53:32.824Z,23.63
2022-08-16T08:56:01.358Z,23.77
2022-08-16T08:58:54.353Z,23.70
2022-08-16T09:01:31.948Z,23.86
2022-08-16T09:04:06.112Z,23.97
2022-08-16T09:06:34.203Z,23.92
2022-08-16T09:09:01.946Z,24.08
2022-08-16T09:11:40.675Z,24.04
2022-08-16T09:14:09.109Z,24.21
2022-08-16T09:17:03.037Z,24.23
2022-08-16T09:19:42.009Z,24.14
2022-08-16T09:22:20.746Z,24.19
2022-08-16T09:25:11.099Z,23.98
2022-08-16T09:27:46.628Z,24.19
2022-08-16T09:30:33.566Z,24.33
2022-08-16T09:33:13.662Z,24.45
2022-08-16T09:35:42.758Z,24.49
2022-08-16T09:38:12.378Z,24.48
2022-08-16T09:40:49.045Z,24.63
2022-08-16T09:43:58.105Z,24.72
2022-08-16T09:46:46.071Z,24.97
2022-08-16T09:48:56.495Z,25.08
2022-08-16T09:51:30.831Z,25.13
2022-08-16T09:54:09.711Z,25.34
2022-08-16T09:56:38.045Z,25.29
2022-08-16T09:59:08.627Z,25.33
2022-08-16T10:01:43.494Z,25.37
2022-08-16T10:04:29.668Z,25.20
2022-08-16T10:09:53.859Z,25.28
2022-08-16T10:12:34.375Z,25.29
2022-08-16T10:15:01.068Z,25.42
2022-08-16T10:17:29.057Z,25.36
2022-08-16T10:19:56.202Z,25.56
2022-08-16T10:22:23.545Z,25.80
2022-08-16T10:24:56.125Z,25.89
2022-08-16T10:27:47.002Z,25.99
2022-08-16T10:30:28.348Z,26.05
2022-08-16T10:32:56.299Z,26.05
2022-08-16T10:35:23.629Z,26.23
2022-08-16T10:37:52.273Z,26.24
2022-08-16T10:40:29.295Z,26.22
2022-08-16T10:43:00.806Z,26.30
2022-08-16T10:45:36.614Z,26.36
2022-08-16T10:48:27.680Z,26.44
2022-08-16T10:50:58.159Z,26.58
2022-08-16T10:53:32.736Z,26.45
2022-08-16T10:56:55.300Z,26.22
2022-08-16T11:12:56.533Z,25.66
2022-08-16T11:15:24.435Z,25.44
2022-08-16T11:20:49.081Z,25.32
2022-08-16T11:23:16.872Z,25.17
2022-08-16T11:31:24.286Z,24.94
2022-08-16T11:33:52.852Z,24.92
2022-08-16T11:36:27.502Z,24.77
2022-08-16T11:38:57.825Z,24.84
2022-08-16T11:41:29.296Z,24.72
2022-08-16T11:43:57.928Z,24.63
2022-08-16T11:46:45.299Z,24.75
2022-08-16T11:49:13.850Z,24.54
2022-08-16T11:51:44.180Z,24.56
2022-08-16T11:54:21.819Z,24.62
2022-08-16T11:56:57.098Z,24.49
2022-08-16T11:59:28.800Z,24.51
2022-08-16T12:02:00.062Z,24.48
2022-08-16T12:04:31.735Z,24.40
2022-08-16T12:06:58.840Z,24.46
2022-08-16T12:09:29.411Z,24.36
2022-08-16T12:11:58.442Z,24.30
2022-08-16T12:14:35.497Z,24.30
2022-08-16T12:17:08.525Z,24.17
2022-08-16T12:19:36.037Z,24.20
2022-08-16T12:22:19.086Z,24.21
2022-08-16T12:24:51.092Z,24.07
2022-08-16T12:27:23.005Z,24.19
2022-08-16T12:29:53.784Z,24.17
2022-08-16T12:32:38.452Z,24.11
2022-08-16T12:35:10.717Z,24.24
2022-08-16T12:37:37.735Z,24.18
2022-08-16T12:40:17.164Z,24.19
2022-08-16T12:42:58.913Z,24.28
2022-08-16T12:45:33.246Z,24.23
2022-08-16T12:48:36.825Z,24.31
2022-08-16T12:51:13.757Z,24.34
2022-08-16T12:53:47.341Z,24.28
2022-08-16T12:56:16.644Z,24.42
2022-08-16T12:58:52.751Z,24.42
2022-08-16T13:01:23.071Z,24.37
2022-08-16T13:04:08.280Z,24.51
2022-08-16T13:06:40.129Z,24.43
2022-08-16T13:09:20.947Z,24.50
2022-08-16T13:12:09.648Z,24.57
2022-08-16T13:14:39.943Z,24.60
2022-08-16T13:17:18.387Z,24.80
2022-08-16T13:22:35.308Z,24.84
2022-08-16T13:25:02.556Z,24.98
2022-08-16T13:28:02.575Z,25.01
2022-08-16T13:30:35.551Z,25.13
2022-08-16T13:33:10.765Z,25.31
2022-08-16T13:35:43.175Z,25.36
2022-08-16T13:38:10.420Z,25.52
2022-08-16T13:40:49.218Z,25.61
2022-08-16T13:43:19.701Z,25.57
2022-08-16T13:45:46.444Z,25.66
2022-08-16T13:48:21.954Z,25.76
2022-08-16T13:50:53.036Z,25.67
2022-08-16T13:53:24.538Z,25.73
2022-08-16T13:55:57.750Z,25.85
2022-08-16T13:58:36.828Z,25.83
2022-08-16T14:01:18.542Z,25.97
2022-08-16T14:03:46.925Z,26.12
2022-08-16T14:06:14.894Z,26.09
2022-08-16T14:08:43.224Z,26.14
2022-08-16T14:11:14.938Z,26.23
2022-08-16T14:13:43.078Z,26.22
2022-08-16T14:16:23.539Z,26.29
2022-08-16T14:18:52.835Z,26.38
2022-08-16T14:21:21.882Z,26.30
2022-08-16T14:23:52.149Z,26.11
2022-08-16T14:26:21.372Z,26.15
2022-08-16T14:28:50.865Z,26.16
2022-08-16T14:31:20.681Z,26.08
2022-08-16T14:33:47.780Z,26.15
2022-08-16T14:36:18.833Z,26.16
2022-08-16T14:38:56.105Z,26.40
2022-08-16T14:41:24.502Z,26.64
2022-08-16T14:43:51.261Z,26.78
2022-08-16T14:46:18.014Z,27.00
2022-08-16T14:48:44.726Z,27.18
2022-08-16T14:51:11.454Z,27.27
2022-08-16T14:53:39.273Z,27.32
2022-08-16T14:56:17.551Z,27.17
2022-08-16T14:59:00.436Z,27.29
2022-08-16T15:01:57.263Z,27.49
2022-08-16T15:04:39.820Z,27.61
2022-08-16T15:07:06.430Z,27.72
2022-08-16T15:09:44.598Z,27.76
2022-08-16T15:12:33.378Z,27.89
2022-08-16T15:15:04.390Z,28.01
2022-08-16T15:17:39.702Z,28.10
2022-08-16T15:20:09.860Z,28.08
2022-08-16T15:22:43.549Z,27.83
2022-08-16T15:25:45.074Z,27.92
2022-08-16T15:28:24.061Z,28.06
2022-08-16T15:31:06.096Z,27.94
2022-08-16T15:33:43.439Z,27.72
2022-08-16T15:36:18.216Z,27.51
2022-08-16T15:39:02.916Z,27.12
2022-08-16T15:41:38.644Z,27.26
2022-08-16T15:44:11.643Z,27.33
2022-08-16T15:46:54.964Z,27.26
2022-08-16T15:49:25.086Z,27.23
2022-08-16T15:51:59.360Z,26.95
2022-08-16T15:54:31.011Z,26.79
2022-08-16T15:57:10.988Z,26.70
2022-08-16T15:59:49.027Z,26.49
2022-08-16T16:02:29.474Z,26.48
2022-08-16T16:05:09.872Z,26.43
2022-08-16T16:07:40.888Z,26.20
2022-08-16T16:10:29.467Z,26.15
2022-08-16T16:12:58.229Z,25.98
2022-08-16T16:15:29.491Z,25.86
2022-08-16T16:17:57.149Z,25.92
2022-08-16T16:20:27.177Z,25.94
2022-08-16T16:22:59.573Z,25.74
2022-08-16T16:25:28.032Z,25.75
2022-08-16T16:27:59.468Z,25.79
2022-08-16T16:30:37.926Z,25.63
2022-08-16T16:33:21.231Z,25.54
2022-08-16T16:35:57.079Z,25.63
2022-08-16T16:38:30.966Z,25.45
2022-08-16T16:41:08.934Z,25.48
2022-08-16T16:43:42.215Z,25.55
2022-08-16T16:46:39.227Z,25.35
2022-08-16T16:48:58.149Z,25.38
2022-08-16T16:51:27.949Z,25.45
2022-08-16T16:53:56.729Z,25.26
2022-08-16T16:56:31.151Z,25.24
2022-08-16T16:59:06.437Z,25.23
2022-08-16T17:02:00.145Z,25.11
2022-08-16T17:04:31.250Z,25.15
2022-08-16T17:06:59.541Z,25.04
2022-08-16T17:09:28.752Z,25.03
2022-08-16T17:11:57.010Z,25.04
2022-08-16T17:14:33.912Z,24.94
2022-08-16T17:17:09.297Z,24.99
2022-08-16T17:19:41.476Z,24.84
2022-08-16T17:22:19.774Z,24.88
2022-08-16T17:24:50.982Z,24.79
2022-08-16T17:27:32.441Z,24.75
2022-08-16T17:30:15.923Z,24.74
2022-08-16T17:32:50.196Z,24.62
2022-08-16T17:35:21.363Z,24.72
2022-08-16T17:37:51.556Z,24.54
2022-08-16T17:40:47.886Z,24.59
2022-08-16T17:43:20.213Z,24.41
2022-08-16T17:45:47.854Z,24.43
2022-08-16T17:48:14.962Z,24.39
2022-08-16T17:50:42.266Z,24.30
2022-08-16T17:53:10.283Z,24.38
2022-08-16T17:55:39.281Z,24.25
2022-08-16T17:58:22.821Z,24.24
2022-08-16T18:00:56.063Z,24.27
2022-08-16T18:04:02.441Z,24.19
2022-08-16T18:06:19.796Z,24.31
2022-08-16T18:08:48.671Z,24.21
2022-08-16T18:11:26.290Z,24.24
2022-08-16T18:13:53.947Z,24.26
2022-08-16T18:16:20.707Z,24.15
2022-08-16T18:18:47.377Z,24.22
2022-08-16T18:21:34.134Z,24.16
2022-08-16T18:24:01.203Z,24.15
2022-08-16T18:26:27.949Z,24.21
2022-08-16T18:28:54.857Z,24.08
2022-08-16T18:31:21.699Z,24.18
2022-08-16T18:33:49.647Z,24.20
2022-08-16T18:36:24.363Z,24.13
2022-08-16T18:38:52.200Z,24.18
2022-08-16T18:41:20.915Z,24.15
2022-08-16T18:44:22.510Z,24.18
2022-08-16T18:46:34.955Z,24.11
2022-08-16T18:49:01.680Z,23.82
2022-08-16T18:51:28.382Z,23.72
2022-08-16T18:53:55.099Z,23.65
2022-08-16T18:56:21.852Z,23.31
2022-08-16T18:58:49.751Z,23.25
2022-08-16T19:01:19.448Z,23.16
2022-08-16T19:03:46.157Z,22.27
2022-08-16T19:06:17.308Z,21.77
2022-08-16T19:08:44.944Z,21.15
2022-08-16T19:11:15.680Z,20.64
2022-08-16T19:13:45.770Z,20.31
2022-08-16T19:16:14.047Z,20.25
2022-08-16T19:18:41.640Z,20.23
2022-08-16T19:21:11.461Z,20.21
2022-08-16T19:23:43.668Z,20.07
2022-08-16T19:26:24.518Z,19.82
2022-08-16T19:28:59.854Z,19.78
2022-08-16T19:31:33.001Z,19.82
2022-08-16T19:34:00.602Z,19.95
2022-08-16T19:36:35.920Z,19.83
2022-08-16T19:39:06.942Z,19.67
2022-08-16T19:41:38.688Z,19.86
2022-08-16T19:44:06.677Z,19.98
2022-08-16T19:46:33.918Z,20.02
2022-08-16T19:49:00.775Z,20.05
2022-08-16T19:51:27.628Z,19.84
2022-08-16T19:53:54.527Z,19.89
2022-08-16T19:56:25.915Z,20.01
2022-08-16T19:59:18.824Z,20.11
2022-08-16T20:01:43.798Z,20.15
2022-08-16T20:04:12.839Z,19.95
2022-08-16T20:06:40.961Z,19.99
2022-08-16T20:09:07.776Z,20.10
2022-08-16T20:11:35.635Z,20.16
2022-08-16T20:14:02.781Z,20.20
2022-08-16T20:16:29.721Z,20.14
2022-08-16T20:18:56.665Z,19.99
2022-08-16T20:21:23.725Z,20.09
2022-08-16T20:23:50.466Z,20.17
2022-08-16T20:26:18.984Z,20.23
2022-08-16T20:28:53.833Z,20.28
2022-08-16T20:31:23.653Z,20.07
2022-08-16T20:33:51.574Z,19.88
2022-08-16T20:36:18.368Z,20.01
2022-08-16T20:38:47.726Z,20.09
2022-08-16T20:41:16.095Z,20.16
2022-08-16T20:43:42.972Z,20.20
2022-08-16T20:46:09.828Z,19.89
2022-08-16T20:48:36.574Z,19.77
2022-08-16T20:51:04.264Z,19.88
2022-08-16T20:53:31.148Z,19.99
2022-08-16T20:55:57.883Z,20.07
2022-08-16T20:58:25.376Z,20.11
2022-08-16T21:00:53.195Z,19.91
2022-08-16T21:03:19.923Z,19.76
2022-08-16T21:05:46.759Z,19.84
2022-08-16T21:08:51.067Z,19.95
2022-08-16T21:11:04.319Z,19.99
2022-08-16T21:13:32.710Z,20.05
2022-08-16T21:16:01.016Z,19.67
2022-08-16T21:18:27.973Z,19.55
2022-08-16T21:20:54.748Z,19.66
2022-08-16T21:23:21.657Z,19.78
2022-08-16T21:25:58.472Z,19.87
2022-08-16T21:28:40.138Z,19.92
2022-08-16T21:31:15.089Z,19.62
2022-08-16T21:33:43.282Z,19.65
2022-08-16T21:36:13.812Z,19.76
2022-08-16T21:38:40.687Z,19.82
2022-08-16T21:41:10.512Z,19.89
2022-08-16T21:43:37.183Z,19.86
2022-08-16T21:46:06.412Z,19.64
2022-08-16T21:48:36.032Z,19.73
2022-08-16T21:51:11.931Z,19.78
2022-08-16T21:53:39.232Z,19.87
2022-08-16T21:56:06.732Z,19.96
2022-08-16T21:58:35.680Z,20.02
2022-08-16T22:01:03.599Z,19.84
2022-08-16T22:03:34.844Z,19.55
2022-08-16T22:06:12.731Z,19.59
2022-08-16T22:08:49.412Z,19.69
2022-08-16T22:11:22.999Z,19.78
2022-08-16T22:13:57.778Z,19.89
2022-08-16T22:16:25.915Z,19.95
2022-08-16T22:18:52.649Z,19.79
2022-08-16T22:21:20.385Z,19.64
2022-08-16T22:23:55.155Z,19.76
2022-08-16T22:26:30.993Z,19.82
2022-08-16T22:29:00.497Z,19.85
2022-08-16T22:31:29.728Z,19.89
2022-08-16T22:33:59.044Z,19.95
2022-08-16T22:36:28.575Z,20.00
2022-08-16T22:39:00.085Z,19.94
2022-08-16T22:41:29.706Z,19.61
2022-08-16T22:43:57.512Z,19.56
2022-08-16T22:46:24.778Z,19.65
2022-08-16T22:48:51.784Z,19.69
2022-08-16T22:51:23.364Z,19.75
2022-08-16T22:53:50.943Z,19.75
2022-08-16T22:56:18.392Z,19.78
2022-08-16T22:58:47.646Z,19.74
2022-08-16T23:01:19.379Z,19.41
2022-08-16T23:03:46.152Z,19.21
2022-08-16T23:06:13.728Z,19.31
2022-08-16T23:08:41.797Z,19.36
2022-08-16T23:11:21.259Z,19.40
2022-08-16T23:13:54.509Z,19.44
2022-08-16T23:16:33.397Z,19.45
2022-08-16T23:19:07.153Z,19.47
2022-08-16T23:21:35.000Z,19.51
2022-08-16T23:24:02.706Z,19.51
2022-08-16T23:26:43.954Z,19.23
2022-08-16T23:29:21.966Z,18.98
2022-08-16T23:31:59.390Z,19.10
2022-08-16T23:34:28.431Z,19.19
2022-08-16T23:36:57.433Z,19.21
2022-08-16T23:39:24.587Z,19.25
2022-08-16T23:41:52.050Z,19.26
2022-08-16T23:44:57.720Z,19.25
2022-08-16T23:47:06.430Z,19.18
2022-08-16T23:49:58.439Z,19.17
2022-08-16T23:52:39.373Z,19.18
2022-08-16T23:55:08.096Z,19.10
2022-08-16T23:57:34.949Z,18.61
